Time;durP1;ratioP1;P1;durP2;ratioP2;P2;SDS_P1;SDS_P2;PMS_P1;PMS_P2;Temp;Humidity;BMP_temperature;BMP_pressure;BME280_temperature;BME280_humidity;BME280_pressure;Samples;Min_cycle;Max_cycle;Signal;HPM_P1;HPM_P2
2021/04/10 00:00:31;;;;;;;23.87;13.28;;;;;;;0.23;92.95;100184.33;1783376;80;20975;-64
2021/04/10 00:02:59;;;;;;;24.77;14.85;;;;;;;0.22;92.83;100185.30;1756639;81;21120;-63
2021/04/10 00:05:27;;;;;;;22.90;14.35;;;;;;;0.16;93.37;100188.14;1756761;81;21280;-64
2021/04/10 00:07:55;;;;;;;30.77;16.02;;;;;;;0.10;93.01;100182.70;1756678;81;21081;-64
2021/04/10 00:10:26;;;;;;;27.58;14.18;;;;;;;0.11;94.14;100181.73;1756634;80;21065;-64
2021/04/10 00:12:57;;;;;;;21.82;12.95;;;;;;;0.11;93.15;100181.73;1669182;86;20925;-64
2021/04/10 00:15:28;;;;;;;18.00;11.55;;;;;;;0.14;93.67;100171.64;1669329;85;21139;-64
2021/04/10 00:17:56;;;;;;;26.05;11.90;;;;;;;0.22;92.43;100181.34;1669293;84;22212;-64
2021/04/10 00:20:24;;;;;;;21.87;13.03;;;;;;;0.26;91.55;100177.88;1669405;86;21157;-63
2021/04/10 00:22:52;;;;;;;22.75;12.75;;;;;;;0.25;91.54;100182.34;1669544;84;21543;-64
2021/04/10 00:25:20;;;;;;;21.25;14.05;;;;;;;0.27;92.03;100180.84;1669345;86;21163;-64
2021/04/10 00:31:45;;;;;;;20.02;12.45;;;;;;;0.26;91.05;100183.98;1735655;81;21061;-63
2021/04/10 00:34:13;;;;;;;23.90;12.35;;;;;;;0.21;91.58;100181.03;1771791;79;21003;-65
2021/04/10 00:36:43;;;;;;;20.40;13.18;;;;;;;0.27;91.13;100180.84;1783201;80;21007;-64
2021/04/10 00:39:10;;;;;;;21.17;12.18;;;;;;;0.22;91.69;100177.38;1783451;79;20999;-63
2021/04/10 00:41:38;;;;;;;23.55;13.22;;;;;;;0.25;90.89;100173.10;1783322;79;20884;-64
2021/04/10 00:44:07;;;;;;;37.10;15.15;;;;;;;0.16;91.69;100172.30;1783415;80;21377;-63
2021/04/10 00:46:35;;;;;;;28.45;14.85;;;;;;;0.15;91.39;100177.27;1783461;80;20908;-64
2021/04/10 00:49:03;;;;;;;23.47;12.40;;;;;;;0.09;91.83;100176.61;1783661;79;20912;-64
2021/04/10 00:51:31;;;;;;;27.10;14.10;;;;;;;0.02;92.58;100184.06;1783674;79;21142;-63
2021/04/10 00:53:58;;;;;;;20.80;11.35;;;;;;;-0.06;93.77;100173.04;1771472;80;21043;-64
2021/04/10 00:56:26;;;;;;;20.35;13.22;;;;;;;0.02;92.68;100176.14;1766610;81;21391;-64
2021/04/10 00:58:54;;;;;;;22.40;10.98;;;;;;;0.08;93.02;100175.48;1766580;80;20940;-63
2021/04/10 01:01:22;;;;;;;20.40;11.80;;;;;;;0.11;92.31;100167.21;1753260;80;21031;-64
2021/04/10 01:03:50;;;;;;;15.90;10.93;;;;;;;0.05;92.22;100175.33;1765407;81;21373;-64
2021/04/10 01:06:18;;;;;;;17.02;10.15;;;;;;;0.01;92.58;100166.59;1754155;81;21418;-61
2021/04/10 01:08:46;;;;;;;16.73;9.65;;;;;;;-0.02;92.94;100171.72;1745872;81;21448;-62
2021/04/10 01:11:58;;;;;;;16.70;10.50;;;;;;;-0.01;93.12;100168.07;1748562;81;21117;-62
2021/04/10 01:14:49;;;;;;;19.15;10.82;;;;;;;0.10;92.88;100167.72;1737963;81;21209;-63
2021/04/10 01:17:21;;;;;;;18.25;10.95;;;;;;;0.08;93.55;100176.30;1748836;81;21122;-62
2021/04/10 01:20:04;;;;;;;15.68;10.78;;;;;;;0.04;93.44;100174.98;1722252;81;21010;-62
2021/04/10 01:23:05;;;;;;;15.80;10.10;;;;;;;0.01;93.48;100170.05;1742484;81;21397;-63
2021/04/10 01:26:03;;;;;;;19.27;10.55;;;;;;;0.03;94.29;100175.17;1736412;81;20944;-63
2021/04/10 01:28:57;;;;;;;14.98;10.40;;;;;;;-0.03;93.89;100170.05;1688652;84;21130;-63
2021/04/10 01:31:44;;;;;;;16.93;10.15;;;;;;;-0.01;93.75;100170.71;1849953;76;28387;-65
2021/04/10 01:34:45;;;;;;;11.70;8.18;;;;;;;-0.01;93.55;100170.71;1815612;78;28172;-62
2021/04/10 01:37:17;;;;;;;17.42;10.30;;;;;;;-0.09;94.12;100163.64;1686518;83;21039;-63
2021/04/10 01:39:45;;;;;;;17.57;10.43;;;;;;;-0.06;94.37;100171.72;1649886;85;21333;-62
2021/04/10 01:42:14;;;;;;;23.55;12.37;;;;;;;-0.08;94.84;100172.37;1687412;82;21139;-63
2021/04/10 01:44:42;;;;;;;21.05;10.80;;;;;;;-0.07;94.89;100166.13;1641161;86;21479;-63
2021/04/10 01:47:13;;;;;;;19.73;9.93;;;;;;;-0.09;95.10;100158.37;1685608;83;21466;-63
2021/04/10 01:49:41;;;;;;;18.92;11.08;;;;;;;-0.11;95.97;100164.30;1702191;83;21041;-63
2021/04/10 01:52:12;;;;;;;15.28;9.83;;;;;;;-0.11;95.89;100162.17;1677677;83;21369;-63
2021/04/10 01:54:41;;;;;;;19.30;10.68;;;;;;;-0.12;95.81;100165.31;1700621;83;20992;-63
2021/04/10 01:57:09;;;;;;;17.62;10.90;;;;;;;-0.08;95.70;100165.78;1671226;84;21082;-64
2021/04/10 01:59:39;;;;;;;25.35;12.45;;;;;;;-0.14;96.23;100161.20;1683350;83;21087;-62
2021/04/10 02:02:10;;;;;;;24.77;12.10;;;;;;;-0.16;96.46;100164.50;1689441;83;21138;-63
2021/04/10 02:04:43;;;;;;;18.60;12.50;;;;;;;-0.19;96.79;100163.52;1682269;83;21378;-61
2021/04/10 02:07:12;;;;;;;22.50;11.40;;;;;;;-0.17;96.81;100158.40;1636490;86;21499;-61
2021/04/10 02:09:45;;;;;;;20.37;11.22;;;;;;;-0.17;97.07;100161.04;1678725;83;20956;-62
2021/04/10 02:12:19;;;;;;;15.18;10.05;;;;;;;-0.13;96.82;100159.69;1670756;84;21095;-62
2021/04/10 02:14:49;;;;;;;20.77;10.48;;;;;;;-0.12;97.19;100159.19;1706917;81;20924;-62
2021/04/10 02:17:20;;;;;;;19.23;11.68;;;;;;;-0.14;97.60;100157.23;1686654;83;21378;-62
2021/04/10 02:19:49;;;;;;;20.92;12.28;;;;;;;-0.21;97.82;100151.80;1690205;83;20960;-62
2021/04/10 02:22:17;;;;;;;19.75;12.28;;;;;;;-0.25;98.77;100149.17;1662660;83;20975;-62
2021/04/10 02:24:45;;;;;;;16.17;11.47;;;;;;;-0.22;99.36;100156.27;1688689;83;21125;-62
2021/04/10 02:27:13;;;;;;;21.45;12.10;;;;;;;-0.19;98.91;100152.47;1712236;82;21575;-62
2021/04/10 02:29:54;;;;;;;18.27;10.88;;;;;;;-0.24;99.46;100151.64;1712050;83;21441;-62
2021/04/10 02:32:41;;;;;;;;;;;;;;;-0.16;99.60;100155.26;1739153;81;21080;-62
2021/04/10 02:35:35;;;;;;;13.43;9.88;;;;;;;-0.11;99.91;100152.94;1680998;82;28089;-62
2021/04/10 02:38:04;;;;;;;23.10;12.07;;;;;;;-0.24;100.00;100156.11;1642630;86;21240;-62
2021/04/10 02:40:35;;;;;;;16.90;11.57;;;;;;;-0.12;100.00;100160.50;1662739;85;21087;-62
2021/04/10 02:43:07;;;;;;;16.42;10.90;;;;;;;-0.02;100.00;100160.66;1640285;86;21388;-62
2021/04/10 02:45:38;;;;;;;17.48;12.18;;;;;;;-0.05;100.00;100161.00;1664105;85;21028;-61
2021/04/10 02:48:08;;;;;;;17.95;12.20;;;;;;;-0.07;100.00;100159.53;1657400;85;20951;-62
2021/04/10 02:50:36;;;;;;;19.80;12.23;;;;;;;-0.06;100.00;100158.52;1657445;85;20970;-61
2021/04/10 02:53:06;;;;;;;18.82;12.43;;;;;;;-0.09;100.00;100162.83;1654810;85;21140;-61
2021/04/10 02:55:38;;;;;;;19.23;11.90;;;;;;;-0.20;100.00;100161.36;1655567;86;21385;-61
2021/04/10 02:58:10;;;;;;;20.60;11.63;;;;;;;-0.25;100.00;100161.04;1657367;86;21526;-61
2021/04/10 03:00:43;;;;;;;19.90;11.20;;;;;;;-0.35;100.00;100169.13;1657396;85;21011;-61
2021/04/10 03:03:14;;;;;;;20.08;11.12;;;;;;;-0.36;100.00;100166.19;1657588;85;20977;-63
2021/04/10 03:05:44;;;;;;;17.02;10.25;;;;;;;-0.37;100.00;100172.44;1657427;85;21551;-62
2021/04/10 03:08:20;;;;;;;18.92;11.00;;;;;;;-0.40;100.00;100167.50;1609135;86;21050;-61
2021/04/10 03:10:58;;;;;;;22.05;11.80;;;;;;;-0.43;100.00;100163.89;1839139;77;27934;-63
2021/04/10 03:13:25;;;;;;;21.57;11.70;;;;;;;-0.52;100.00;100164.88;1801971;79;21002;-65
2021/04/10 03:15:55;;;;;;;19.35;11.05;;;;;;;-0.53;100.00;100165.38;1769698;80;21364;-66
2021/04/10 03:18:24;;;;;;;21.52;12.05;;;;;;;-0.55;100.00;100169.17;1748937;80;21122;-65
2021/04/10 03:20:54;;;;;;;21.65;11.33;;;;;;;-0.44;100.00;100164.89;1726489;80;21133;-66
2021/04/10 03:23:22;;;;;;;20.92;12.05;;;;;;;-0.44;100.00;100158.30;1777552;79;25651;-65
2021/04/10 03:25:52;;;;;;;22.20;12.23;;;;;;;-0.38;100.00;100161.56;1778789;79;20928;-64
2021/04/10 03:28:20;;;;;;;28.80;14.53;;;;;;;-0.30;100.00;100160.72;1758625;80;21342;-65
2021/04/10 03:30:48;;;;;;;25.60;12.70;;;;;;;-0.27;100.00;100162.55;1759177;80;20976;-65
2021/04/10 03:33:18;;;;;;;20.70;11.97;;;;;;;-0.31;100.00;100160.41;1740483;82;21024;-63
2021/04/10 03:35:46;;;;;;;26.95;14.10;;;;;;;-0.36;100.00;100158.77;1715923;83;21481;-63
2021/04/10 03:38:15;;;;;;;20.75;11.55;;;;;;;-0.36;100.00;100163.55;1739253;80;21057;-63
2021/04/10 03:40:43;;;;;;;20.27;10.95;;;;;;;-0.27;100.00;100159.91;1755149;80;21038;-63
2021/04/10 03:43:11;;;;;;;19.12;10.78;;;;;;;-0.18;100.00;100162.52;1762764;80;21532;-63
2021/04/10 03:45:52;;;;;;;16.48;12.10;;;;;;;-0.08;100.00;100168.42;1809438;78;27951;-63
2021/04/10 03:48:22;;;;;;;15.78;10.70;;;;;;;-0.06;100.00;100167.77;1784234;79;20996;-64
2021/04/10 03:50:51;;;;;;;17.82;10.85;;;;;;;-0.06;100.00;100173.04;1787047;79;22237;-64
2021/04/10 03:53:19;;;;;;;23.50;12.40;;;;;;;-0.06;100.00;100174.36;1795529;79;20935;-64
2021/04/10 03:55:51;;;;;;;19.60;11.08;;;;;;;-0.05;100.00;100173.35;1784861;79;20916;-65
2021/04/10 03:58:19;;;;;;;16.07;10.32;;;;;;;0.00;100.00;100173.70;1779929;79;21426;-64
2021/04/10 04:00:46;;;;;;;18.30;10.47;;;;;;;0.06;100.00;100161.12;1716451;81;20920;-63
2021/04/10 04:03:14;;;;;;;19.17;11.33;;;;;;;0.16;100.00;100164.38;1725827;82;21413;-62
2021/04/10 04:05:42;;;;;;;17.52;11.53;;;;;;;0.27;100.00;100168.48;1717326;82;20893;-63
2021/04/10 04:08:10;;;;;;;20.12;12.47;;;;;;;0.36;100.00;100171.89;1743693;79;20926;-63
2021/04/10 04:10:37;;;;;;;18.57;11.03;;;;;;;0.49;100.00;100181.89;1757595;80;21013;-63
2021/04/10 04:13:05;;;;;;;19.15;12.10;;;;;;;0.58;100.00;100177.72;1722514;82;21157;-63
2021/04/10 04:15:33;;;;;;;27.58;13.70;;;;;;;0.65;100.00;100172.57;1747478;81;21389;-63
2021/04/10 04:18:01;;;;;;;;;;;;;;;0.73;99.83;100173.02;1745490;81;21464;-63
2021/04/10 04:20:29;;;;;;;20.12;11.38;;;;;;;0.79;99.46;100172.33;1740769;81;20142;-63
2021/04/10 04:22:57;;;;;;;20.90;11.90;;;;;;;0.88;99.02;100162.01;1749061;79;21113;-63
2021/04/10 04:25:24;;;;;;;20.25;11.28;;;;;;;0.99;97.99;100168.73;1764719;79;21113;-63
2021/04/10 04:27:53;;;;;;;15.65;10.70;;;;;;;1.10;97.23;100172.26;1759977;79;21371;-63
2021/04/10 04:30:23;;;;;;;18.82;11.38;;;;;;;1.19;96.43;100168.56;1759943;81;21431;-64
2021/04/10 04:32:51;;;;;;;11.43;8.55;;;;;;;1.28;96.31;100174.62;1740628;81;21041;-64
2021/04/10 04:35:18;;;;;;;20.65;11.78;;;;;;;1.35;95.48;100175.56;1753328;80;21452;-63
2021/04/10 04:37:46;;;;;;;16.35;11.33;;;;;;;1.46;95.43;100175.11;1761461;81;21074;-63
2021/04/10 04:40:15;;;;;;;17.25;11.10;;;;;;;1.58;94.97;100165.42;1760204;81;21381;-65
2021/04/10 04:42:43;;;;;;;21.00;11.73;;;;;;;1.66;94.06;100170.13;1762309;81;21591;-65
2021/04/10 04:45:11;;;;;;;19.30;10.65;;;;;;;1.77;93.30;100170.70;1754081;80;20959;-64
2021/04/10 04:47:38;;;;;;;27.67;12.95;;;;;;;1.86;92.07;100171.77;1747297;81;21441;-65
2021/04/10 04:50:08;;;;;;;19.90;10.80;;;;;;;2.00;92.04;100175.41;1740532;81;20952;-64
2021/04/10 04:52:36;;;;;;;16.95;10.25;;;;;;;2.13;90.44;100182.22;1744068;81;21363;-64
2021/04/10 04:55:06;;;;;;;22.27;11.38;;;;;;;2.30;90.22;100183.33;1730915;81;20979;-65
2021/04/10 04:57:34;;;;;;;16.82;9.95;;;;;;;2.53;89.12;100188.53;1738973;81;21569;-64
2021/04/10 05:00:04;;;;;;;21.35;11.68;;;;;;;2.72;86.83;100182.64;1746946;81;24785;-65
2021/04/10 05:02:32;;;;;;;24.02;11.85;;;;;;;2.72;86.83;100182.64;1721680;81;20903;-65
2021/04/10 05:05:00;;;;;;;;;;;;;;;3.03;84.96;100193.45;1739342;80;22586;-64
2021/04/10 05:15:28;;;;;;;20.65;12.05;;;;;;;3.59;80.65;100179.45;1683485;82;21002;-63
2021/04/10 05:17:56;;;;;;;;;;;;;;;3.75;80.23;100187.62;1676253;83;21154;-63
2021/04/10 05:20:25;;;;;;;13.95;8.40;;;;;;;4.01;79.20;100185.14;1689859;83;21398;-64
2021/04/10 05:22:56;;;;;;;20.80;7.33;;;;;;;3.91;77.49;100183.35;1626363;87;20959;-63
2021/04/10 05:25:24;;;;;;;24.95;14.10;;;;;;;4.01;76.13;100179.02;1672248;84;21021;-64
2021/04/10 05:27:54;;;;;;;20.50;9.70;;;;;;;4.28;76.07;100187.95;1671843;84;20978;-63
2021/04/10 05:30:22;;;;;;;19.17;11.78;;;;;;;4.28;73.56;100180.80;1639277;86;21050;-63
2021/04/10 05:32:50;;;;;;;22.70;11.57;;;;;;;4.46;74.39;100184.27;1617857;87;22137;-64
2021/04/10 05:35:18;;;;;;;;;;;;;;;4.63;73.62;100186.08;1641675;86;21092;-64
2021/04/10 05:37:46;;;;;;;29.82;14.07;;;;;;;4.63;71.77;100182.09;1639305;86;20150;-64
2021/04/10 05:40:14;;;;;;;29.70;13.45;;;;;;;4.91;72.01;100192.59;1639433;86;21590;-62
2021/04/10 05:42:41;;;;;;;25.85;13.40;;;;;;;5.10;72.06;100195.51;1639450;86;21046;-63
2021/04/10 05:45:12;;;;;;;19.62;10.45;;;;;;;5.30;69.93;100192.87;1622261;87;21359;-63
2021/04/10 05:47:40;;;;;;;24.60;13.00;;;;;;;5.29;69.22;100185.89;1685002;84;21006;-63
2021/04/10 05:50:10;;;;;;;15.80;8.73;;;;;;;5.35;69.52;100191.74;1684823;83;21167;-62
2021/04/10 05:52:38;;;;;;;15.60;8.43;;;;;;;5.43;67.78;100187.54;1679103;83;20942;-63
2021/04/10 05:55:08;;;;;;;23.07;12.23;;;;;;;5.38;67.56;100195.32;1743740;81;20990;-63
2021/04/10 05:57:36;;;;;;;17.55;10.30;;;;;;;5.55;67.74;100191.23;1743576;81;21263;-62
2021/04/10 06:00:06;;;;;;;17.00;10.50;;;;;;;5.59;66.73;100192.98;1743846;81;21037;-63
2021/04/10 06:02:36;;;;;;;17.70;10.28;;;;;;;5.87;65.77;100197.26;1743526;81;21006;-63
2021/04/10 06:05:06;;;;;;;18.27;10.18;;;;;;;6.08;64.88;100193.06;1743774;81;21376;-62
2021/04/10 06:07:33;;;;;;;17.37;10.70;;;;;;;6.46;64.19;100198.17;1743626;81;21025;-61
2021/04/10 06:10:02;;;;;;;14.23;9.00;;;;;;;6.64;62.58;100194.31;1743795;81;21201;-62
2021/04/10 06:12:31;;;;;;;14.45;8.63;;;;;;;6.76;63.02;100200.62;1743595;81;21436;-63
2021/04/10 06:14:59;;;;;;;;;;;;;;;6.68;61.49;100192.84;1746305;81;20928;-63
2021/04/10 06:17:26;;;;;;;15.50;9.13;;;;;;;6.71;61.24;100197.74;1743613;81;20218;-62
2021/04/10 06:19:58;;;;;;;11.88;5.58;;;;;;;6.86;60.88;100195.63;1743592;81;20935;-64
2021/04/10 06:22:33;;;;;;;16.48;9.38;;;;;;;6.75;59.64;100193.63;1742276;82;21443;-63
2021/04/10 06:25:14;;;;;;;11.20;7.17;;;;;;;6.85;61.49;100198.50;1743532;81;20922;-64
2021/04/10 06:27:49;;;;;;;19.55;10.45;;;;;;;7.19;59.05;100202.62;1743548;81;20955;-63
2021/04/10 06:30:22;;;;;;;14.00;9.73;;;;;;;7.72;57.80;100202.75;1743418;81;21133;-63
2021/04/10 06:32:50;;;;;;;16.95;9.98;;;;;;;7.76;57.89;100200.44;1743579;81;20967;-63
2021/04/10 06:35:21;;;;;;;13.58;8.45;;;;;;;7.86;58.22;100200.26;1743561;82;21375;-63
2021/04/10 06:37:49;;;;;;;10.28;7.00;;;;;;;8.08;55.70;100202.49;1743505;82;21029;-63
2021/04/10 06:40:17;;;;;;;14.85;10.48;;;;;;;7.86;55.34;100198.92;1743696;81;20986;-61
2021/04/10 06:42:45;;;;;;;13.50;9.20;;;;;;;8.23;56.36;100206.98;1743712;81;20974;-61
2021/04/10 06:45:13;;;;;;;19.12;8.25;;;;;;;8.62;53.58;100207.57;1738365;81;20975;-62
2021/04/10 06:47:42;;;;;;;13.65;9.00;;;;;;;8.49;52.43;100197.05;1729512;81;21205;-62
2021/04/10 06:50:45;;;;;;;21.90;12.28;;;;;;;8.57;53.37;100203.41;1717184;82;21171;-63
2021/04/10 06:53:15;;;;;;;;;;;;;;;9.21;52.59;100209.99;1719799;83;21089;-61
2021/04/10 06:55:54;;;;;;;13.50;8.95;;;;;;;9.60;51.10;100207.75;1717336;83;20168;-63
2021/04/10 06:58:59;;;;;;;6.22;4.37;;;;;;;9.56;50.57;100209.25;1717184;83;20960;-63
2021/04/10 07:01:27;;;;;;;9.15;5.22;;;;;;;9.21;47.15;100206.47;1715492;82;21347;-63
2021/04/10 07:03:55;;;;;;;10.75;7.30;;;;;;;8.66;47.84;100214.12;1722061;82;21128;-61
2021/04/10 07:09:45;;;;;;;13.60;8.05;;;;;;;8.97;50.05;100202.39;1710618;83;21083;-61
2021/04/10 07:12:14;;;;;;;11.78;7.33;;;;;;;9.63;48.25;100217.19;1715264;83;21222;-62
2021/04/10 07:14:43;;;;;;;10.53;5.92;;;;;;;9.89;45.45;100215.91;1715178;83;21567;-62
2021/04/10 07:17:13;;;;;;;8.28;5.42;;;;;;;9.90;45.32;100215.38;1715069;83;21552;-62
2021/04/10 07:19:41;;;;;;;7.20;4.97;;;;;;;9.65;43.90;100213.72;1715039;83;22079;-62
2021/04/10 07:22:14;;;;;;;9.45;5.67;;;;;;;9.75;42.66;100223.37;1714979;83;21173;-63
2021/04/10 07:24:45;;;;;;;6.17;3.25;;;;;;;9.76;42.47;100218.83;1715053;83;21118;-63
2021/04/10 07:27:19;;;;;;;6.95;4.70;;;;;;;9.81;40.66;100214.39;1717832;82;22036;-62
2021/04/10 07:29:49;;;;;;;13.58;6.83;;;;;;;9.68;40.31;100199.04;1731244;82;21226;-61
2021/04/10 07:32:37;;;;;;;14.50;6.55;;;;;;;9.93;41.51;100214.41;1732133;82;20992;-62
2021/04/10 07:35:10;;;;;;;8.13;5.17;;;;;;;10.11;40.64;100214.80;1753754;81;21249;-62
2021/04/10 07:37:50;;;;;;;10.05;6.55;;;;;;;10.25;38.98;100223.42;1753761;81;21518;-63
2021/04/10 07:40:28;;;;;;;8.55;5.55;;;;;;;10.37;40.13;100224.25;1753539;81;21445;-61
2021/04/10 07:43:02;;;;;;;8.18;4.62;;;;;;;10.46;38.57;100171.85;1753667;81;20973;-61
2021/04/10 07:45:34;;;;;;;13.00;6.03;;;;;;;10.24;38.74;100219.94;1682260;84;21008;-61
2021/04/10 07:50:55;;;;;;;9.53;5.33;;;;;;;10.32;37.61;100207.24;1873725;76;22731;-63
2021/04/10 07:53:29;;;;;;;9.93;5.95;;;;;;;10.40;37.38;100212.23;1841906;78;20992;-63
2021/04/10 07:55:59;;;;;;;7.70;4.90;;;;;;;10.46;38.11;100210.77;1841768;77;21491;-62
2021/04/10 08:01:41;;;;;;;33.58;14.07;;;;;;;10.83;37.69;100217.14;1746622;81;20946;-61
2021/04/10 08:04:14;;;;;;;20.17;7.92;;;;;;;11.04;37.88;100213.48;1746101;80;21486;-60
2021/04/10 08:06:56;;;;;;;23.35;13.78;;;;;;;11.13;35.85;100199.96;1727103;82;21038;-61
2021/04/10 08:09:38;;;;;;;32.73;13.72;;;;;;;11.03;36.99;100210.53;1716114;83;21442;-61
2021/04/10 08:12:11;;;;;;;29.37;15.60;;;;;;;11.12;36.30;100213.09;1736715;82;21740;-62
2021/04/10 08:14:45;;;;;;;27.95;13.62;;;;;;;10.97;35.84;100215.50;1738351;80;21144;-62
2021/04/10 08:17:13;;;;;;;11.05;6.33;;;;;;;11.10;36.00;100209.85;1716103;82;21223;-62
2021/04/10 08:19:42;;;;;;;6.17;5.00;;;;;;;11.10;35.88;100212.00;1716040;82;21140;-61
2021/04/10 08:22:23;;;;;;;8.65;5.42;;;;;;;11.00;35.49;100184.96;1714539;83;21363;-61
2021/04/10 08:25:30;;;;;;;12.13;6.15;;;;;;;11.30;34.84;100194.08;1841265;78;25776;-62
2021/04/10 08:27:59;;;;;;;9.88;5.67;;;;;;;11.12;35.69;100207.20;1779815;80;20987;-61
2021/04/10 08:30:27;;;;;;;7.35;4.42;;;;;;;11.13;35.03;100206.14;1749888;82;21376;-61
2021/04/10 08:32:55;;;;;;;9.78;6.78;;;;;;;11.22;34.66;100202.55;1749864;82;25345;-60
2021/04/10 08:35:24;;;;;;;10.75;6.58;;;;;;;11.36;35.48;100205.72;1748061;82;20940;-61
2021/04/10 08:37:57;;;;;;;8.40;5.20;;;;;;;11.80;35.52;100193.25;1749853;82;21000;-62
2021/04/10 08:40:25;;;;;;;14.68;6.10;;;;;;;11.63;33.93;100195.67;1749891;82;21559;-63
2021/04/10 08:42:56;;;;;;;7.05;5.22;;;;;;;11.43;34.84;100206.38;1748162;82;21398;-61
2021/04/10 08:45:32;;;;;;;9.58;6.08;;;;;;;11.62;34.13;100174.70;1718209;82;21114;-61
2021/04/10 08:48:05;;;;;;;7.08;4.35;;;;;;;11.53;34.91;100200.36;1655053;86;21022;-62
2021/04/10 08:50:38;;;;;;;10.30;5.22;;;;;;;11.29;34.22;100197.84;1690203;84;21214;-60
2021/04/10 08:53:09;;;;;;;13.90;4.47;;;;;;;11.51;34.15;100199.78;1690555;84;22272;-60
2021/04/10 08:55:40;;;;;;;13.15;6.72;;;;;;;11.76;34.59;100198.86;1690575;84;21372;-61
2021/04/10 08:58:30;;;;;;;11.00;6.30;;;;;;;11.79;33.98;100199.70;1690327;84;21197;-61
2021/04/10 09:01:26;;;;;;;9.80;4.67;;;;;;;11.79;34.55;100191.64;1836402;78;22706;-61
2021/04/10 09:03:54;;;;;;;6.95;4.72;;;;;;;11.71;33.10;100197.44;1749528;80;21183;-59
2021/04/10 09:06:40;;;;;;;7.28;4.55;;;;;;;11.78;33.12;100195.91;1749506;82;21332;-61
2021/04/10 09:09:19;;;;;;;10.45;5.33;;;;;;;11.66;33.38;100181.73;1749385;80;21062;-61
2021/04/10 09:12:19;;;;;;;6.42;4.28;;;;;;;12.13;32.11;100192.16;1841365;77;23279;-60
2021/04/10 09:14:48;;;;;;;7.42;5.10;;;;;;;11.79;32.51;100187.60;1751486;81;21007;-61
2021/04/10 09:17:16;;;;;;;8.05;5.65;;;;;;;11.79;32.38;100176.84;1749896;82;21370;-62
2021/04/10 09:19:45;;;;;;;8.15;5.17;;;;;;;12.03;32.96;100187.45;1750085;81;21016;-62
2021/04/10 09:22:17;;;;;;;9.90;6.53;;;;;;;11.96;32.39;100166.63;1749344;81;21007;-60
2021/04/10 09:24:47;;;;;;;7.95;5.70;;;;;;;12.16;33.01;100184.92;1756914;80;21041;-59
2021/04/10 09:27:24;;;;;;;8.45;6.55;;;;;;;12.44;33.36;100177.20;1755231;81;21363;-60
2021/04/10 09:30:05;;;;;;;;;;;;;;;12.81;32.89;100174.69;1757968;81;21370;-60
2021/04/10 09:32:45;;;;;;;12.80;4.83;;;;;;;12.91;32.77;100163.20;1755108;81;20525;-59
2021/04/10 09:35:18;;;;;;;10.60;5.50;;;;;;;12.79;32.02;100177.34;1754916;81;21024;-60
2021/04/10 09:37:54;;;;;;;11.50;6.78;;;;;;;12.76;31.44;100177.83;1754209;81;21199;-59
2021/04/10 09:40:47;;;;;;;6.00;4.62;;;;;;;13.06;32.17;100165.23;1754790;81;21123;-59
2021/04/10 09:43:15;;;;;;;8.55;5.08;;;;;;;12.77;32.10;100173.55;1754444;81;21364;-59
2021/04/10 09:45:44;;;;;;;5.10;3.95;;;;;;;12.49;30.78;100170.52;1754913;81;21064;-59
2021/04/10 09:48:18;;;;;;;7.83;4.17;;;;;;;12.36;30.45;100144.80;1755139;81;21509;-59
2021/04/10 09:50:58;;;;;;;6.15;4.60;;;;;;;12.58;30.89;100177.64;1754993;81;21111;-59
2021/04/10 09:53:28;;;;;;;15.30;9.13;;;;;;;12.68;29.75;100164.28;1754935;81;21139;-60
2021/04/10 09:56:05;;;;;;;8.50;5.50;;;;;;;12.98;31.51;100163.78;1754614;81;21190;-60
2021/04/10 09:58:50;;;;;;;11.55;6.58;;;;;;;13.02;31.12;100162.75;1755228;81;21179;-61
2021/04/10 10:01:30;;;;;;;8.58;5.28;;;;;;;12.92;30.66;100168.05;1836684;78;22633;-60
2021/04/10 10:03:58;;;;;;;6.80;5.20;;;;;;;12.92;30.57;100162.66;1809085;79;20966;-60
2021/04/10 10:06:34;;;;;;;11.70;6.87;;;;;;;12.39;30.69;100160.98;1813773;77;21192;-58
2021/04/10 10:09:23;;;;;;;13.32;6.83;;;;;;;12.50;30.41;100149.28;1808422;79;20903;-60
2021/04/10 10:11:53;;;;;;;8.55;3.45;;;;;;;12.41;30.43;100144.86;1812692;77;20990;-59
2021/04/10 10:14:21;;;;;;;18.30;9.88;;;;;;;12.24;30.24;100152.19;1808213;79;20994;-61
2021/04/10 10:16:49;;;;;;;13.80;6.70;;;;;;;12.68;31.23;100158.90;1780438;79;21009;-60
2021/04/10 10:19:20;;;;;;;6.90;3.98;;;;;;;12.83;29.68;100155.55;1780229;80;22062;-59
2021/04/10 10:21:48;;;;;;;10.98;4.95;;;;;;;12.68;29.83;100146.78;1780247;79;21431;-59
2021/04/10 10:24:21;;;;;;;9.60;6.17;;;;;;;12.77;29.98;100150.66;1780618;79;27224;-60
2021/04/10 10:26:49;;;;;;;10.72;4.42;;;;;;;12.73;29.53;100154.91;1780344;79;21533;-60
2021/04/10 10:29:19;;;;;;;9.95;6.58;;;;;;;12.76;29.54;100136.08;1780504;80;21522;-60
2021/04/10 10:31:55;;;;;;;11.10;7.17;;;;;;;13.06;30.76;100140.43;1783213;79;21359;-60
2021/04/10 10:34:25;;;;;;;13.08;6.60;;;;;;;13.33;30.31;100154.45;1799806;79;21564;-59
2021/04/10 10:36:55;;;;;;;10.60;5.33;;;;;;;13.08;30.61;100141.00;1801308;79;20977;-59
2021/04/10 10:39:32;;;;;;;8.23;4.65;;;;;;;12.91;30.06;100137.60;1801643;79;21078;-60
2021/04/10 10:42:02;;;;;;;10.78;5.20;;;;;;;13.05;29.12;100135.28;1801475;79;20984;-59
2021/04/10 10:44:30;;;;;;;6.30;4.95;;;;;;;12.98;30.58;100147.61;1801314;79;21369;-61
2021/04/10 10:47:09;;;;;;;9.30;5.65;;;;;;;13.08;30.18;100147.73;1801657;79;20987;-59
2021/04/10 10:49:37;;;;;;;14.80;7.53;;;;;;;13.19;30.17;100144.58;1713406;82;23993;-59
2021/04/10 10:52:15;;;;;;;8.60;4.80;;;;;;;13.20;29.17;100133.26;1713668;83;20955;-59
2021/04/10 10:54:43;;;;;;;7.83;5.60;;;;;;;12.74;29.77;100143.59;1691934;83;20963;-59
2021/04/10 10:57:13;;;;;;;8.53;6.47;;;;;;;12.61;30.07;100135.39;1713871;83;21360;-59
2021/04/10 10:59:43;;;;;;;9.70;5.17;;;;;;;12.51;30.86;100138.78;1713908;83;21122;-59
2021/04/10 11:02:19;;;;;;;8.63;5.97;;;;;;;12.59;29.31;100140.20;1713670;83;21176;-59
2021/04/10 11:04:47;;;;;;;12.60;8.55;;;;;;;12.79;30.20;100135.59;1684777;85;21164;-59
2021/04/10 11:07:15;;;;;;;10.03;6.53;;;;;;;12.85;29.95;100125.94;1684917;85;21120;-61
2021/04/10 11:09:43;;;;;;;7.93;4.83;;;;;;;12.58;29.30;100126.47;1638981;83;21421;-59
2021/04/10 11:12:15;;;;;;;13.08;9.15;;;;;;;12.82;29.85;100129.15;1663685;85;21242;-61
2021/04/10 11:14:46;;;;;;;20.70;13.10;;;;;;;12.92;29.91;100124.94;1619563;88;20967;-61
2021/04/10 11:17:32;;;;;;;14.40;9.00;;;;;;;13.19;29.03;100122.21;1610143;87;21655;-61
2021/04/10 11:20:02;;;;;;;14.83;8.85;;;;;;;12.95;30.09;100128.46;1651135;85;21802;-61
2021/04/10 11:22:30;;;;;;;7.92;5.28;;;;;;;12.75;29.83;100119.66;1620759;88;21387;-61
2021/04/10 11:25:03;;;;;;;13.75;5.83;;;;;;;13.02;30.35;100115.05;1624744;88;21065;-60
2021/04/10 11:27:34;;;;;;;11.90;6.45;;;;;;;13.36;30.75;100110.78;1640335;87;21133;-61
2021/04/10 11:30:18;;;;;;;7.50;4.00;;;;;;;13.49;29.88;100122.45;1661186;84;21126;-60
2021/04/10 11:33:08;;;;;;;18.92;11.78;;;;;;;12.75;29.26;100082.75;1703024;83;21145;-59
2021/04/10 11:35:55;;;;;;;10.95;6.10;;;;;;;13.02;29.99;100093.50;1837094;78;22688;-60
2021/04/10 11:38:23;;;;;;;7.53;3.60;;;;;;;13.31;30.38;100107.24;1809586;78;20842;-61
2021/04/10 11:40:51;;;;;;;5.80;3.92;;;;;;;13.08;28.89;100105.96;1809663;79;21316;-60
2021/04/10 11:43:18;;;;;;;14.60;8.45;;;;;;;12.93;29.38;100090.98;1809464;79;20956;-61
2021/04/10 11:45:49;;;;;;;11.18;6.78;;;;;;;13.24;29.80;100103.38;1809528;79;21134;-61
2021/04/10 11:48:24;;;;;;;11.50;7.03;;;;;;;13.30;29.08;100101.02;1809012;79;20968;-61
2021/04/10 11:50:59;;;;;;;6.65;4.60;;;;;;;13.29;29.47;100095.36;1809346;79;20972;-60
2021/04/10 11:53:40;;;;;;;8.78;4.55;;;;;;;13.38;29.07;100077.64;1809008;78;21381;-61
2021/04/10 11:56:27;;;;;;;9.78;5.40;;;;;;;13.18;29.25;100080.97;1809275;79;20996;-62
2021/04/10 11:59:08;;;;;;;11.05;6.10;;;;;;;13.23;29.00;100079.66;1809439;79;21017;-59
2021/04/10 12:01:51;;;;;;;18.87;7.95;;;;;;;13.21;28.89;100071.02;1809110;79;20948;-63
2021/04/10 12:04:34;;;;;;;8.28;4.90;;;;;;;13.53;29.72;100074.77;1809052;79;21118;-61